Oxnard Airport
KOXR : now visible

Airfield :











YOU CAN JOIN US ON...

 
LOGIN :

Register | Disclaimer

   EN    FR    IT 

 









Legend :    VFR   Marginal VFR   IFR   Intensive IFR   Very Intensive IFR
Visi :
Ceiling :
>= 8 km
>= 3000ft
5 to 8 km
1000 to 3000 ft
1500m to 5 km
500 to 1000 ft
800 to 1500m
200 to 500 ft
< 800m
< 200 ft
Symbols :   Thunderstorms  Fog  Heavy snow  Heavy precipitations  Wind > 20 kt






- Airport Elevation : 45 ft


KOXR - Oxnard

CURRENT METAR :
  • 051851Z 13003KT 10SM OVC060 18/11 A3015 RMK AO2 SLP208 T01780106

EXPIRED METARs :
  • 051751Z 06006KT 10SM OVC055 17/12 A3015 RMK AO2 SLP208 T01670117 10167 20128 51017
  • 051651Z 04007KT 10SM OVC055 15/12 A3014 RMK AO2 SLP205 T01500117

TAF KOXR
Valid from the 05 at 18:00 until the 06 at 18:00 UTC


051720Z 0518/0618 07006KT P6SM BKN040 BKN150
FM052100 13008KT P6SM BKN050 BKN150
FM060300 VRB03KT P6SM BKN050 BKN150
FM061000 09007KT P6SM SCT050 BKN150



MET'MAP, your aeronautical weather chart ! - Copyright ORBIFLY December 2007 - Disclaimer

ORBIFLY MET'MAP TEAM :

Programming & Development : Alexandra Zaïnal
Concept & original design : Baudouin d'Aumeries
Assistance for programming : Marc-Olivier Méhu
Technical & hardware support : Manuel Goepfert

Contact : metmap@orbifly.com




SOURCES & CREDITS :

   NOAA       Earth
Advisory